createdAt,value
2024-03-15T00:00:55.707Z,0.35
2024-03-15T00:03:55.671Z,0.5
2024-03-15T00:06:55.737Z,0.44
2024-03-15T00:09:55.697Z,0.39
2024-03-15T00:12:55.634Z,0.33
2024-03-15T00:15:55.728Z,0.25
2024-03-15T00:18:56.024Z,0.27
2024-03-15T00:21:55.690Z,0.41
2024-03-15T00:24:55.649Z,0.43
2024-03-15T00:27:55.736Z,0.31
2024-03-15T00:30:55.641Z,0.35
2024-03-15T00:33:55.762Z,0.16
2024-03-15T00:36:55.673Z,0.46
2024-03-15T00:39:55.815Z,0.12
2024-03-15T00:42:55.662Z,0.3
2024-03-15T00:45:55.647Z,0.46
2024-03-15T00:48:55.674Z,0.67
2024-03-15T00:51:55.770Z,0.25
2024-03-15T00:54:55.667Z,0.27
2024-03-15T00:57:55.660Z,0.15
2024-03-15T01:00:55.718Z,0.3
2024-03-15T01:03:55.658Z,0.38
2024-03-15T01:06:55.654Z,0.5
2024-03-15T01:09:55.631Z,0.45
2024-03-15T01:12:55.682Z,0.29
2024-03-15T01:15:55.732Z,0.28
2024-03-15T01:18:55.779Z,0.34
2024-03-15T01:21:55.829Z,0.2
2024-03-15T01:24:55.708Z,0.19
2024-03-15T01:27:55.704Z,0.34
2024-03-15T01:30:55.684Z,0.44
2024-03-15T01:33:55.706Z,0.49
2024-03-15T01:36:55.716Z,0.45
2024-03-15T01:39:55.750Z,0.37
2024-03-15T01:42:55.707Z,0.28
2024-03-15T01:45:55.822Z,0.34
2024-03-15T01:49:10.138Z,0.32
2024-03-15T01:51:59.376Z,0.24
2024-03-15T01:54:55.900Z,0.33
2024-03-15T01:57:55.698Z,0.24
2024-03-15T02:00:55.704Z,0.12
2024-03-15T02:03:55.731Z,0.3
2024-03-15T02:06:55.711Z,0.25
2024-03-15T02:09:55.712Z,0.3
2024-03-15T02:12:55.716Z,0.34
2024-03-15T02:15:58.271Z,0.28
2024-03-15T02:18:55.798Z,0.18
2024-03-15T02:21:55.815Z,0.24
2024-03-15T02:24:55.793Z,0.52
2024-03-15T02:27:55.832Z,0.42
2024-03-15T02:30:55.826Z,0.41
2024-03-15T02:33:55.779Z,0.32
2024-03-15T02:36:55.741Z,0.37
2024-03-15T02:39:55.827Z,0.54
2024-03-15T02:42:55.760Z,0.62
2024-03-15T02:45:55.850Z,0.56
2024-03-15T02:48:55.748Z,0.6
2024-03-15T02:54:56.793Z,0.54
2024-03-15T02:57:55.824Z,0.57
2024-03-15T03:00:55.865Z,0.59
2024-03-15T03:03:55.784Z,0.59
2024-03-15T03:06:55.799Z,0.66
2024-03-15T03:09:55.859Z,0.86
2024-03-15T03:12:55.836Z,0.66
2024-03-15T03:15:55.814Z,0.87
2024-03-15T03:18:55.801Z,0.66
2024-03-15T03:21:55.838Z,0.68
2024-03-15T03:24:55.900Z,0.71
2024-03-15T03:27:55.831Z,0.93
2024-03-15T03:30:55.817Z,0.51
2024-03-15T03:33:55.955Z,0.48
2024-03-15T03:36:55.881Z,0.66
2024-03-15T03:39:55.871Z,0.69
2024-03-15T03:42:55.868Z,0.54
2024-03-15T03:45:55.855Z,0.65
2024-03-15T03:48:55.927Z,0.63
2024-03-15T03:51:55.876Z,0.64
2024-03-15T03:54:57.718Z,0.55
2024-03-15T03:57:55.868Z,0.44
2024-03-15T04:00:55.967Z,0.6
2024-03-15T04:03:55.839Z,0.42
2024-03-15T04:06:55.885Z,0.61
2024-03-15T04:09:55.850Z,0.44
2024-03-15T04:12:55.877Z,0.31
2024-03-15T04:15:55.905Z,0.48
2024-03-15T04:18:55.867Z,0.43
2024-03-15T04:21:55.871Z,0.31
2024-03-15T04:24:55.871Z,0.68
2024-03-15T04:27:55.918Z,0.49
2024-03-15T04:30:55.891Z,0.22
2024-03-15T04:33:55.939Z,0.42
2024-03-15T04:36:55.801Z,0.55
2024-03-15T04:39:55.878Z,0.5
2024-03-15T04:42:55.911Z,0.72
2024-03-15T04:45:55.946Z,0.4
2024-03-15T04:48:55.906Z,0.26
2024-03-15T04:51:55.883Z,0.62
2024-03-15T04:54:55.896Z,0.71
2024-03-15T04:57:55.919Z,0.56
2024-03-15T05:00:55.934Z,0.68
2024-03-15T05:03:55.867Z,0.69
2024-03-15T05:06:55.883Z,0.84
2024-03-15T05:09:55.995Z,0.86
2024-03-15T05:12:55.914Z,0.72
2024-03-15T05:15:55.902Z,0.67
2024-03-15T05:18:55.974Z,0.81
2024-03-15T05:21:55.854Z,0.72
2024-03-15T05:24:55.929Z,0.8
2024-03-15T05:27:55.893Z,0.75
2024-03-15T05:30:55.887Z,0.61
2024-03-15T05:33:55.966Z,0.68
2024-03-15T05:36:56.003Z,0.59
2024-03-15T05:39:55.928Z,0.68
2024-03-15T05:42:55.904Z,0.62
2024-03-15T05:45:55.928Z,0.51
2024-03-15T05:48:55.948Z,0.55
2024-03-15T05:51:55.898Z,0.58
2024-03-15T05:54:55.975Z,0.8
2024-03-15T05:57:56.023Z,0.64
2024-03-15T06:00:55.928Z,0.73
2024-03-15T06:03:55.964Z,0.14
2024-03-15T06:06:55.941Z,0.34
2024-03-15T06:09:56.040Z,0.44
2024-03-15T06:12:55.954Z,0.53
2024-03-15T06:15:55.994Z,0.37
2024-03-15T06:18:56.030Z,0.49
2024-03-15T06:21:56.008Z,0.36
2024-03-15T06:24:56.052Z,0.42
2024-03-15T06:27:56.021Z,0.26
2024-03-15T06:30:56.042Z,0.32
2024-03-15T06:33:56.005Z,0.52
2024-03-15T06:36:56.032Z,0.51
2024-03-15T06:39:56.074Z,0.54
2024-03-15T06:42:56.040Z,0.33
2024-03-15T06:45:56.107Z,0.53
2024-03-15T06:48:56.026Z,0.24
2024-03-15T06:51:56.053Z,0.48
2024-03-15T06:54:55.984Z,0.47
2024-03-15T06:57:56.475Z,0.69
2024-03-15T07:00:56.499Z,0.42
2024-03-15T07:03:56.089Z,0.92
2024-03-15T07:06:56.118Z,0.52
2024-03-15T07:09:56.023Z,0.71
2024-03-15T07:12:56.100Z,0.97
2024-03-15T07:15:56.135Z,0.56
2024-03-15T07:18:56.073Z,0.78
2024-03-15T07:21:56.132Z,1.14
2024-03-15T07:24:56.086Z,1.01
2024-03-15T07:27:57.486Z,1.08
2024-03-15T07:30:56.057Z,1.29
2024-03-15T07:33:55.995Z,0.85
2024-03-15T07:36:56.042Z,0.93
2024-03-15T07:39:56.479Z,0.55
2024-03-15T07:42:56.120Z,0.54
2024-03-15T07:45:56.058Z,1.12
2024-03-15T07:48:56.180Z,1.29
2024-03-15T07:51:56.069Z,1.19
2024-03-15T07:54:56.139Z,1.39
2024-03-15T07:57:56.116Z,1.77
2024-03-15T08:00:56.187Z,0.9
2024-03-15T08:03:56.088Z,0.89
2024-03-15T08:06:56.128Z,0.88
2024-03-15T08:09:56.283Z,1.36
2024-03-15T08:12:56.496Z,0.91
2024-03-15T08:15:56.398Z,1.04
2024-03-15T08:18:56.131Z,0.82
2024-03-15T08:21:57.301Z,1.3
2024-03-15T08:24:56.232Z,1.65
2024-03-15T08:27:58.285Z,1.23
2024-03-15T08:30:56.115Z,1.39
2024-03-15T08:33:56.209Z,1.31
2024-03-15T08:36:56.067Z,1.77
2024-03-15T08:39:56.105Z,0.86
2024-03-15T08:42:56.142Z,1.18
2024-03-15T08:45:56.160Z,1.23
2024-03-15T08:48:56.209Z,0.92
2024-03-15T08:51:56.161Z,1.15
2024-03-15T08:54:56.193Z,0.92
2024-03-15T08:57:56.187Z,1.26
2024-03-15T09:00:56.597Z,1.28
2024-03-15T09:03:56.135Z,1.24
2024-03-15T09:06:56.270Z,1.12
2024-03-15T09:09:56.178Z,0.75
2024-03-15T09:12:56.133Z,1.14
2024-03-15T09:15:56.248Z,1.37
2024-03-15T09:18:56.350Z,1.83
2024-03-15T09:21:56.250Z,1.65
2024-03-15T09:24:56.176Z,1.13
2024-03-15T09:27:56.301Z,1.59
2024-03-15T09:31:02.247Z,1.13
2024-03-15T09:33:56.306Z,1.29
2024-03-15T09:36:56.208Z,1.85
2024-03-15T09:39:56.153Z,1.45
2024-03-15T09:42:56.170Z,1.43
2024-03-15T09:45:56.266Z,1.56
2024-03-15T09:48:56.160Z,1.76
2024-03-15T09:51:56.208Z,1.75
2024-03-15T09:54:56.164Z,1.57
2024-03-15T09:57:56.291Z,1.22
2024-03-15T10:00:56.231Z,1.22
2024-03-15T10:03:56.201Z,1.59
2024-03-15T10:06:56.282Z,1.64
2024-03-15T10:09:56.165Z,1.73
2024-03-15T10:12:57.937Z,1.58
2024-03-15T10:15:56.206Z,1.36
2024-03-15T10:18:56.193Z,1.64
2024-03-15T10:21:56.193Z,1.56
2024-03-15T10:24:56.284Z,1.66
2024-03-15T10:27:56.337Z,1.53
2024-03-15T10:30:56.197Z,1.43
2024-03-15T10:33:56.233Z,1.29
2024-03-15T10:36:56.213Z,0.92
2024-03-15T10:39:56.302Z,0.95
2024-03-15T10:42:56.352Z,1.48
2024-03-15T10:45:56.192Z,1.17
2024-03-15T10:48:56.270Z,0.96
2024-03-15T10:51:56.237Z,1.3
2024-03-15T10:54:56.229Z,1.29
2024-03-15T10:57:56.201Z,1.3
2024-03-15T11:00:56.292Z,1.4
2024-03-15T11:03:56.269Z,1.34
2024-03-15T11:06:56.258Z,1.43
2024-03-15T11:09:56.251Z,1.39
2024-03-15T11:12:56.300Z,1.52
2024-03-15T11:15:56.230Z,1.48
2024-03-15T11:18:56.326Z,1.46
2024-03-15T11:21:56.238Z,1.83
2024-03-15T11:24:56.264Z,1.27
2024-03-15T11:27:56.278Z,1.14
2024-03-15T11:30:56.306Z,1.21
2024-03-15T11:33:56.342Z,1.47
2024-03-15T11:36:56.354Z,0.94
2024-03-15T11:39:56.300Z,1.55
2024-03-15T11:42:59.899Z,1.66
2024-03-15T11:45:56.295Z,0.93
2024-03-15T11:48:56.346Z,1.44
2024-03-15T11:51:56.278Z,1.18
2024-03-15T11:54:56.345Z,1.51
2024-03-15T11:57:56.301Z,2.23
2024-03-15T12:00:56.447Z,1.39
2024-03-15T12:03:56.248Z,0.93
2024-03-15T12:06:56.823Z,0.69
2024-03-15T12:09:56.336Z,0.71
2024-03-15T12:12:56.660Z,0.47
2024-03-15T12:15:56.347Z,0.9
2024-03-15T12:18:56.364Z,0.85
2024-03-15T12:21:56.316Z,0.88
2024-03-15T12:24:56.495Z,0.54
2024-03-15T12:27:56.301Z,0.51
2024-03-15T12:30:56.407Z,0.78
2024-03-15T12:33:56.300Z,0.71
2024-03-15T12:36:56.314Z,0.85
2024-03-15T12:39:56.332Z,0.62
2024-03-15T12:42:56.418Z,0.49
2024-03-15T12:45:56.416Z,0.64
2024-03-15T12:48:56.346Z,0.63
2024-03-15T12:51:56.455Z,0.77
2024-03-15T12:54:56.353Z,0.73
2024-03-15T12:57:56.445Z,0.77
2024-03-15T13:00:56.408Z,0.75
2024-03-15T13:03:56.397Z,0.97
2024-03-15T13:06:56.455Z,0.85
2024-03-15T13:09:56.409Z,0.87
2024-03-15T13:12:56.477Z,0.9
2024-03-15T13:15:56.339Z,0.86
2024-03-15T13:18:56.348Z,0.87
2024-03-15T13:21:56.379Z,0.9
2024-03-15T13:24:56.476Z,0.94
2024-03-15T13:27:56.452Z,0.96
2024-03-15T13:30:56.346Z,0.84
2024-03-15T13:33:56.393Z,0.8
2024-03-15T13:36:56.407Z,1.04
2024-03-15T13:39:56.367Z,0.56
2024-03-15T13:42:56.430Z,0.84
2024-03-15T13:45:56.436Z,0.67
2024-03-15T13:48:57.708Z,0.73
2024-03-15T13:51:56.457Z,0.67
2024-03-15T13:54:56.386Z,0.8
2024-03-15T13:57:56.453Z,0.86
2024-03-15T14:00:56.402Z,0.77
2024-03-15T14:03:56.392Z,0.8
2024-03-15T14:06:56.504Z,0.71
2024-03-15T14:09:56.421Z,0.72
2024-03-15T14:12:56.467Z,0.64
2024-03-15T14:15:56.644Z,1.17
2024-03-15T14:18:58.621Z,0.69
2024-03-15T14:21:56.531Z,0.7
2024-03-15T14:24:56.734Z,0.7
2024-03-15T14:27:56.662Z,0.78
2024-03-15T14:30:57.542Z,0.32
2024-03-15T14:33:56.415Z,0.76
2024-03-15T14:36:56.500Z,0.75
2024-03-15T14:39:56.411Z,1.08
2024-03-15T14:42:56.738Z,0.56
2024-03-15T14:45:56.455Z,1.24
2024-03-15T14:48:56.459Z,1.15
2024-03-15T14:51:56.882Z,1.72
2024-03-15T14:54:56.458Z,0.79
2024-03-15T14:57:56.477Z,0.76
2024-03-15T15:00:56.513Z,0.83
2024-03-15T15:03:56.530Z,1.22
2024-03-15T15:06:56.494Z,1.06
2024-03-15T15:09:56.540Z,0.77
2024-03-15T15:12:56.556Z,0.66
2024-03-15T15:15:56.592Z,0.77
2024-03-15T15:18:56.476Z,1.11
2024-03-15T15:21:56.466Z,0.72
2024-03-15T15:24:56.493Z,0.66
2024-03-15T15:27:56.709Z,1.16
2024-03-15T15:30:56.448Z,1.59
2024-03-15T15:33:56.472Z,1.28
2024-03-15T15:36:56.464Z,1.26
2024-03-15T15:39:56.508Z,0.97
2024-03-15T15:42:56.719Z,1.07
2024-03-15T15:45:56.666Z,0.89
2024-03-15T15:48:56.514Z,1.04
2024-03-15T15:51:56.537Z,0.75
2024-03-15T15:54:56.496Z,0.73
2024-03-15T15:57:56.803Z,0.62
2024-03-15T16:00:56.589Z,0.59
2024-03-15T16:03:56.480Z,0.65
2024-03-15T16:06:56.550Z,0.67
2024-03-15T16:09:56.599Z,0.84
2024-03-15T16:12:56.553Z,0.79
2024-03-15T16:15:56.542Z,0.56
2024-03-15T16:18:56.541Z,0.73
2024-03-15T16:21:56.601Z,0.89
2024-03-15T16:24:56.578Z,0.72
2024-03-15T16:27:56.555Z,0.87
2024-03-15T16:30:56.525Z,0.64
2024-03-15T16:33:56.594Z,0.54
2024-03-15T16:36:56.524Z,0.57
2024-03-15T16:39:56.528Z,0.78
2024-03-15T16:42:56.620Z,0.88
2024-03-15T16:45:56.561Z,0.43
2024-03-15T16:48:56.606Z,0.5
2024-03-15T16:51:56.650Z,0.63
2024-03-15T16:54:56.618Z,0.41
2024-03-15T16:57:56.777Z,0.49
2024-03-15T17:00:56.749Z,0.54
2024-03-15T17:03:56.605Z,0.32
2024-03-15T17:06:58.505Z,0.3
2024-03-15T17:09:56.630Z,0.34
2024-03-15T17:12:56.575Z,0.27
2024-03-15T17:15:57.883Z,0.44
2024-03-15T17:18:56.626Z,0.51
2024-03-15T17:21:56.644Z,0.43
2024-03-15T17:24:56.797Z,0.37
2024-03-15T17:27:56.706Z,0.43
2024-03-15T17:30:56.699Z,0.19
2024-03-15T17:33:56.679Z,0.34
2024-03-15T17:36:56.761Z,0.3
2024-03-15T17:39:56.670Z,0.32
2024-03-15T17:42:56.610Z,0.12
2024-03-15T17:45:56.612Z,0.11
2024-03-15T17:48:56.783Z,0.11
2024-03-15T17:51:56.699Z,0.27
2024-03-15T17:54:56.592Z,0.25
2024-03-15T17:57:56.737Z,0.3
2024-03-15T18:00:56.868Z,0.49
2024-03-15T18:03:56.589Z,0.22
2024-03-15T18:06:56.795Z,0.3
2024-03-15T18:09:56.744Z,0.34
2024-03-15T18:12:56.661Z,0.33
2024-03-15T18:15:56.614Z,0.23
2024-03-15T18:18:56.831Z,0.31
2024-03-15T18:21:56.743Z,0.26
2024-03-15T18:24:56.778Z,0.41
2024-03-15T18:27:56.628Z,0.3
2024-03-15T18:30:56.721Z,0.16
2024-03-15T18:33:56.669Z,0.13
2024-03-15T18:36:56.810Z,0.13
2024-03-15T18:39:56.714Z,0.22
2024-03-15T18:42:56.727Z,0.24
2024-03-15T18:45:56.786Z,0.26
2024-03-15T18:48:56.820Z,0.35
2024-03-15T18:51:56.795Z,0.35
2024-03-15T18:54:56.830Z,0.44
2024-03-15T18:57:56.782Z,0.24
2024-03-15T19:00:56.835Z,0.36
2024-03-15T19:03:56.769Z,0.56
2024-03-15T19:06:56.730Z,0.27
2024-03-15T19:09:56.777Z,0.36
2024-03-15T19:12:56.914Z,0.44
2024-03-15T19:15:56.697Z,0.48
2024-03-15T19:18:56.921Z,0.38
2024-03-15T19:21:56.752Z,0.48
2024-03-15T19:24:56.771Z,0.43
2024-03-15T19:27:56.772Z,0.5
2024-03-15T19:30:56.729Z,0.29
2024-03-15T19:33:56.814Z,0.58
2024-03-15T19:36:56.745Z,0.21
2024-03-15T19:39:56.757Z,0.34
2024-03-15T19:42:56.921Z,0.46
2024-03-15T19:45:56.868Z,0.62
2024-03-15T19:48:56.877Z,0.75
2024-03-15T19:51:56.843Z,0.42
2024-03-15T19:54:56.661Z,0.56
2024-03-15T19:57:56.854Z,0.45
2024-03-15T20:00:56.852Z,0.39
2024-03-15T20:03:56.887Z,0.37
2024-03-15T20:06:56.812Z,0.42
2024-03-15T20:09:57.821Z,0.37
2024-03-15T20:12:56.822Z,0.33
2024-03-15T20:15:56.829Z,0.18
2024-03-15T20:18:56.901Z,0.21
2024-03-15T20:21:56.860Z,0.37
2024-03-15T20:24:56.788Z,0.21
2024-03-15T20:27:56.931Z,0.3
2024-03-15T20:30:56.914Z,0.26
2024-03-15T20:33:56.818Z,0.31
2024-03-15T20:36:56.957Z,0.17
2024-03-15T20:39:56.823Z,0.37
2024-03-15T20:42:56.956Z,0.32
2024-03-15T20:45:56.868Z,0.41
2024-03-15T20:48:56.799Z,0.44
2024-03-15T20:51:56.995Z,0.44
2024-03-15T20:54:56.840Z,0.41
2024-03-15T20:57:56.776Z,0.57
2024-03-15T21:00:56.857Z,0.38
2024-03-15T21:03:59.593Z,0.53
2024-03-15T21:06:56.789Z,0.43
2024-03-15T21:09:56.943Z,0.52
2024-03-15T21:12:56.780Z,0.35
2024-03-15T21:15:56.912Z,0.34
2024-03-15T21:18:56.852Z,0.34
2024-03-15T21:21:56.893Z,0.37
2024-03-15T21:24:56.823Z,0.28
2024-03-15T21:27:56.984Z,0.26
2024-03-15T21:30:56.858Z,0.06
2024-03-15T21:33:56.889Z,0.09
2024-03-15T21:36:58.165Z,0.02
2024-03-15T21:39:57.015Z,0.21
2024-03-15T21:42:56.958Z,0.26
2024-03-15T21:45:56.913Z,0.31
2024-03-15T21:48:57.053Z,0.46
2024-03-15T21:51:57.040Z,0.3
2024-03-15T21:54:56.833Z,0.55
2024-03-15T21:57:56.814Z,0.49
2024-03-15T22:00:56.996Z,0.31
2024-03-15T22:03:56.935Z,0.3
2024-03-15T22:06:56.841Z,0.42
2024-03-15T22:09:56.952Z,0.29
2024-03-15T22:12:56.948Z,0.38
2024-03-15T22:15:56.829Z,0.25
2024-03-15T22:18:57.037Z,0.32
2024-03-15T22:21:56.901Z,0.58
2024-03-15T22:25:05.152Z,0.33
2024-03-15T22:27:57.066Z,0.69
2024-03-15T22:30:56.940Z,1.83
2024-03-15T22:33:56.928Z,1.73
2024-03-15T22:36:56.930Z,1.53
2024-03-15T22:39:56.921Z,1.53
2024-03-15T22:42:56.954Z,1.42
2024-03-15T22:45:56.920Z,1.14
2024-03-15T22:48:56.958Z,1.47
2024-03-15T22:51:56.934Z,1.58
2024-03-15T22:54:57.050Z,1.22
2024-03-15T22:57:56.943Z,1.37
2024-03-15T23:00:56.982Z,1.21
2024-03-15T23:03:56.998Z,1.18
2024-03-15T23:06:56.978Z,1.02
2024-03-15T23:09:57.017Z,0.78
2024-03-15T23:12:56.905Z,0.91
2024-03-15T23:15:56.903Z,1
2024-03-15T23:18:56.964Z,0.91
2024-03-15T23:21:56.977Z,0.68
2024-03-15T23:24:57.008Z,0.43
2024-03-15T23:27:57.015Z,0.43
2024-03-15T23:30:57.061Z,0.64
2024-03-15T23:33:58.585Z,0.67
2024-03-15T23:36:57.021Z,0.57
2024-03-15T23:39:56.984Z,0.53
2024-03-15T23:42:57.067Z,0.46
2024-03-15T23:45:56.903Z,0.42
2024-03-15T23:48:56.955Z,0.51
2024-03-15T23:51:57.302Z,0.4
2024-03-15T23:54:57.001Z,0.35
2024-03-15T23:57:56.973Z,0.25
